Time,TemperatureF,DewpointF,PressureIn,WindDirection,WindDirectionDegrees,WindSpeedMPH,WindSpeedGustMPH,Humidity,HourlyPrecipIn,Conditions,Clouds,dailyrainin,SolarRadiationWatts/m^2,SoftwareType,DateUTC
2013-06-22 00:02:00,54.0,51.4,30.05,WNW,286,0.0,0.0,91,0.00,,---,0.00,0.00,VWS V14.01,2013-06-22 07:02:00,
2013-06-22 00:07:00,54.0,51.7,30.05,WNW,286,0.0,0.0,92,0.00,,---,0.00,0.00,VWS V14.01,2013-06-22 07:07:00,
2013-06-22 00:12:00,53.9,51.6,30.05,WNW,286,0.0,0.0,92,0.00,,---,0.00,0.00,VWS V14.01,2013-06-22 07:12:00,
2013-06-22 00:17:00,53.9,51.6,30.05,WNW,286,0.0,0.0,92,0.00,,---,0.00,0.00,VWS V14.01,2013-06-22 07:17:00,
2013-06-22 00:22:00,53.9,51.6,30.05,WNW,286,0.0,0.0,92,0.00,,---,0.00,0.00,VWS V14.01,2013-06-22 07:22:00,
2013-06-22 00:27:00,53.8,51.5,30.05,WNW,286,0.0,0.0,92,0.00,,---,0.00,0.00,VWS V14.01,2013-06-22 07:27:00,
2013-06-22 00:32:00,53.8,51.5,30.05,WNW,286,0.0,0.0,92,0.00,,---,0.00,0.00,VWS V14.01,2013-06-22 07:32:00,
2013-06-22 00:37:00,53.6,51.3,30.05,WNW,286,0.0,0.0,92,0.00,,---,0.00,0.00,VWS V14.01,2013-06-22 07:37:00,
2013-06-22 00:42:00,53.5,51.2,30.05,WNW,286,0.0,0.0,92,0.00,,---,0.00,0.00,VWS V14.01,2013-06-22 07:42:00,
2013-06-22 00:47:00,53.3,51.0,30.05,WNW,286,0.0,0.0,92,0.00,,---,0.00,0.00,VWS V14.01,2013-06-22 07:47:00,
2013-06-22 00:52:00,53.2,50.9,30.05,WNW,286,0.0,0.0,92,0.00,,---,0.00,0.00,VWS V14.01,2013-06-22 07:52:00,
2013-06-22 00:57:00,53.0,51.0,30.05,WNW,286,0.0,0.0,93,0.00,,---,0.00,0.00,VWS V14.01,2013-06-22 07:57:00,
2013-06-22 01:02:00,52.9,50.6,30.06,WNW,286,0.0,0.0,92,0.00,,---,0.00,0.00,VWS V14.01,2013-06-22 08:02:00,
2013-06-22 01:07:00,52.8,50.8,30.06,WNW,286,0.0,1.0,93,0.00,,---,0.00,0.00,VWS V14.01,2013-06-22 08:07:00,
2013-06-22 01:12:00,52.8,50.8,30.06,WNW,286,0.0,1.0,93,0.00,,---,0.00,0.00,VWS V14.01,2013-06-22 08:12:00,
2013-06-22 01:17:00,52.7,50.7,30.06,WNW,286,0.0,0.0,93,0.00,,---,0.00,0.00,VWS V14.01,2013-06-22 08:17:00,
2013-06-22 01:22:00,52.6,50.6,30.05,WNW,286,0.0,0.0,93,0.00,,---,0.00,0.00,VWS V14.01,2013-06-22 08:22:00,
2013-06-22 01:27:00,52.6,50.9,30.05,WNW,286,0.0,0.0,94,0.00,,---,0.00,0.00,VWS V14.01,2013-06-22 08:27:00,
2013-06-22 01:32:00,52.6,50.9,30.05,WNW,286,0.0,0.0,94,0.00,,---,0.00,0.00,VWS V14.01,2013-06-22 08:32:00,
2013-06-22 01:37:00,52.6,50.9,30.05,WNW,286,0.0,0.0,94,0.00,,---,0.00,0.00,VWS V14.01,2013-06-22 08:37:00,
2013-06-22 01:42:00,52.6,50.9,30.04,WNW,286,0.0,0.0,94,0.00,,---,0.00,0.00,VWS V14.01,2013-06-22 08:42:00,
2013-06-22 01:47:00,52.6,50.9,30.04,WNW,286,0.0,1.0,94,0.00,,---,0.00,0.00,VWS V14.01,2013-06-22 08:47:00,
2013-06-22 01:52:00,52.6,51.2,30.04,WNW,286,0.0,1.0,95,0.00,,---,0.00,0.00,VWS V14.01,2013-06-22 08:52:00,
2013-06-22 01:57:00,52.6,51.2,30.05,WNW,286,0.0,0.0,95,0.00,,---,0.00,0.00,VWS V14.01,2013-06-22 08:57:00,
2013-06-22 02:02:00,52.5,51.1,30.05,WNW,286,0.0,0.0,95,0.00,,---,0.00,0.00,VWS V14.01,2013-06-22 09:02:00,
2013-06-22 02:07:00,52.4,51.0,30.05,WNW,286,0.0,0.0,95,0.00,,---,0.00,0.00,VWS V14.01,2013-06-22 09:07:00,
2013-06-22 02:12:00,52.3,50.6,30.05,WNW,286,0.0,0.0,94,0.00,,---,0.00,0.00,VWS V14.01,2013-06-22 09:12:00,
2013-06-22 02:17:00,52.1,50.4,30.05,WNW,286,0.0,0.0,94,0.00,,---,0.00,0.00,VWS V14.01,2013-06-22 09:17:00,
2013-06-22 02:22:00,51.8,50.1,30.05,WNW,286,0.0,0.0,94,0.00,,---,0.00,0.00,VWS V14.01,2013-06-22 09:22:00,
2013-06-22 02:27:00,51.6,49.9,30.05,WNW,286,0.0,0.0,94,0.00,,---,0.00,0.00,VWS V14.01,2013-06-22 09:27:00,
2013-06-22 02:32:00,51.4,49.7,30.05,WNW,286,0.0,0.0,94,0.00,,---,0.00,0.00,VWS V14.01,2013-06-22 09:32:00,
2013-06-22 02:37:00,51.2,49.5,30.05,WNW,286,0.0,0.0,94,0.00,,---,0.00,0.00,VWS V14.01,2013-06-22 09:37:00,
2013-06-22 02:42:00,51.1,49.4,30.05,WNW,286,0.0,0.0,94,0.00,,---,0.00,0.00,VWS V14.01,2013-06-22 09:42:00,
2013-06-22 02:47:00,51.0,49.3,30.05,WNW,286,0.0,0.0,94,0.00,,---,0.00,0.00,VWS V14.01,2013-06-22 09:47:00,
2013-06-22 02:52:00,51.0,49.3,30.05,WNW,286,0.0,0.0,94,0.00,,---,0.00,0.00,VWS V14.01,2013-06-22 09:52:00,
2013-06-22 02:57:00,50.9,49.5,30.04,WNW,286,0.0,0.0,95,0.00,,---,0.00,0.00,VWS V14.01,2013-06-22 09:57:00,
2013-06-22 03:02:00,51.0,49.6,30.04,WNW,286,0.0,0.0,95,0.00,,---,0.00,0.00,VWS V14.01,2013-06-22 10:02:00,
2013-06-22 03:07:00,51.1,49.7,30.04,WNW,286,0.0,0.0,95,0.00,,---,0.00,0.00,VWS V14.01,2013-06-22 10:07:00,
2013-06-22 03:12:00,51.1,49.7,30.04,WNW,286,0.0,0.0,95,0.00,,---,0.00,0.00,VWS V14.01,2013-06-22 10:12:00,
2013-06-22 03:17:00,51.0,49.6,30.04,WNW,286,0.0,0.0,95,0.00,,---,0.00,0.00,VWS V14.01,2013-06-22 10:17:00,
2013-06-22 03:22:00,50.9,49.5,30.04,WNW,286,0.0,0.0,95,0.00,,---,0.00,0.00,VWS V14.01,2013-06-22 10:22:00,
2013-06-22 03:27:00,50.9,49.5,30.04,WNW,286,0.0,0.0,95,0.00,,---,0.00,0.00,VWS V14.01,2013-06-22 10:27:00,
2013-06-22 03:32:00,50.8,49.4,30.04,WNW,286,0.0,0.0,95,0.00,,---,0.00,0.00,VWS V14.01,2013-06-22 10:32:00,
2013-06-22 03:37:00,50.8,49.4,30.03,WNW,286,0.0,0.0,95,0.00,,---,0.00,0.00,VWS V14.01,2013-06-22 10:37:00,
2013-06-22 03:42:00,50.7,49.3,30.03,WNW,286,0.0,0.0,95,0.00,,---,0.00,0.00,VWS V14.01,2013-06-22 10:42:00,
2013-06-22 03:47:00,50.6,49.2,30.03,WNW,286,0.0,0.0,95,0.00,,---,0.00,0.00,VWS V14.01,2013-06-22 10:47:00,
2013-06-22 03:52:00,50.5,49.1,30.03,WNW,286,0.0,0.0,95,0.00,,---,0.00,0.00,VWS V14.01,2013-06-22 10:52:00,
2013-06-22 03:57:00,50.4,49.0,30.03,WNW,286,0.0,0.0,95,0.00,,---,0.00,0.00,VWS V14.01,2013-06-22 10:57:00,
2013-06-22 04:02:00,50.3,48.9,30.03,WNW,286,0.0,0.0,95,0.00,,---,0.00,0.00,VWS V14.01,2013-06-22 11:02:00,
2013-06-22 04:07:00,50.2,48.8,30.03,WNW,286,0.0,0.0,95,0.00,,---,0.00,0.00,VWS V14.01,2013-06-22 11:07:00,
2013-06-22 04:12:00,50.2,48.8,30.03,WNW,286,0.0,0.0,95,0.00,,---,0.00,0.00,VWS V14.01,2013-06-22 11:12:00,
2013-06-22 04:17:00,50.1,48.7,30.03,WNW,286,0.0,0.0,95,0.00,,---,0.00,0.00,VWS V14.01,2013-06-22 11:17:00,
2013-06-22 04:22:00,50.1,48.7,30.02,WNW,286,0.0,0.0,95,0.00,,---,0.00,0.00,VWS V14.01,2013-06-22 11:22:00,
2013-06-22 04:27:00,50.1,48.7,30.02,WNW,286,0.0,0.0,95,0.00,,---,0.00,0.00,VWS V14.01,2013-06-22 11:27:00,
2013-06-22 04:32:00,50.1,49.0,30.02,WNW,286,0.0,0.0,96,0.00,,---,0.00,0.00,VWS V14.01,2013-06-22 11:32:00,
2013-06-22 04:37:00,50.1,49.0,30.02,WNW,288,0.0,1.0,96,0.00,,---,0.00,0.00,VWS V14.01,2013-06-22 11:37:00,
2013-06-22 04:42:00,50.1,49.0,30.02,WNW,288,0.0,0.0,96,0.00,,---,0.00,0.00,VWS V14.01,2013-06-22 11:42:00,
2013-06-22 04:47:00,50.1,49.0,30.02,WNW,288,0.0,0.0,96,0.00,,---,0.00,0.00,VWS V14.01,2013-06-22 11:47:00,
2013-06-22 04:52:00,50.0,48.9,30.02,WNW,288,0.0,0.0,96,0.00,,---,0.00,0.00,VWS V14.01,2013-06-22 11:52:00,
2013-06-22 04:57:00,49.9,48.8,30.02,WNW,288,0.0,0.0,96,0.00,,---,0.00,0.00,VWS V14.01,2013-06-22 11:57:00,
2013-06-22 05:02:00,49.9,48.8,30.02,WNW,288,0.0,0.0,96,0.00,,---,0.00,0.00,VWS V14.01,2013-06-22 12:02:00,
2013-06-22 05:07:00,49.7,48.6,30.02,WNW,288,0.0,0.0,96,0.00,,---,0.00,0.00,VWS V14.01,2013-06-22 12:07:00,
2013-06-22 05:12:00,49.6,48.5,30.02,WNW,288,0.0,0.0,96,0.00,,---,0.00,0.00,VWS V14.01,2013-06-22 12:12:00,
2013-06-22 05:18:00,49.4,48.0,30.02,WNW,288,0.0,0.0,95,0.00,,---,0.00,0.00,VWS V14.01,2013-06-22 12:18:00,
2013-06-22 05:23:00,49.3,47.9,30.02,WNW,288,0.0,0.0,95,0.00,,---,0.00,5.00,VWS V14.01,2013-06-22 12:23:00,
2013-06-22 05:28:00,49.3,48.2,30.02,WNW,288,0.0,0.0,96,0.00,,---,0.00,7.00,VWS V14.01,2013-06-22 12:28:00,
2013-06-22 05:33:00,49.4,48.3,30.02,WNW,288,0.0,0.0,96,0.00,,---,0.00,9.00,VWS V14.01,2013-06-22 12:33:00,
2013-06-22 05:38:00,49.4,48.3,30.02,WNW,288,0.0,0.0,96,0.00,,---,0.00,11.00,VWS V14.01,2013-06-22 12:38:00,
2013-06-22 05:43:00,49.4,48.3,30.02,WNW,288,0.0,0.0,96,0.00,,---,0.00,11.00,VWS V14.01,2013-06-22 12:43:00,
2013-06-22 05:48:00,49.4,48.3,30.02,WNW,288,0.0,0.0,96,0.00,,---,0.00,12.00,VWS V14.01,2013-06-22 12:48:00,
2013-06-22 05:53:00,49.4,48.3,30.02,WNW,288,0.0,0.0,96,0.00,,---,0.00,12.00,VWS V14.01,2013-06-22 12:53:00,
2013-06-22 05:58:00,49.5,48.4,30.02,WNW,288,0.0,0.0,96,0.00,,---,0.00,14.00,VWS V14.01,2013-06-22 12:58:00,
2013-06-22 06:03:00,49.5,48.4,30.02,WNW,288,0.0,0.0,96,0.00,,---,0.00,18.00,VWS V14.01,2013-06-22 13:03:00,
2013-06-22 06:08:00,49.5,48.4,30.02,WNW,288,0.0,0.0,96,0.00,,---,0.00,23.00,VWS V14.01,2013-06-22 13:08:00,
2013-06-22 06:13:00,49.6,48.5,30.01,WNW,288,0.0,2.0,96,0.00,,---,0.00,21.00,VWS V14.01,2013-06-22 13:13:00,
2013-06-22 06:18:00,49.7,48.6,30.02,WNW,288,0.0,1.0,96,0.00,,---,0.00,18.00,VWS V14.01,2013-06-22 13:18:00,
2013-06-22 06:23:00,49.8,48.7,30.02,WNW,288,0.0,0.0,96,0.00,,---,0.00,12.00,VWS V14.01,2013-06-22 13:23:00,
2013-06-22 06:28:00,49.8,48.7,30.02,WNW,288,0.0,0.0,96,0.00,,---,0.00,12.00,VWS V14.01,2013-06-22 13:28:00,
2013-06-22 06:33:00,49.8,48.7,30.02,WNW,288,0.0,0.0,96,0.00,,---,0.00,14.00,VWS V14.01,2013-06-22 13:33:00,
2013-06-22 06:38:00,49.7,48.6,30.02,WNW,288,0.0,0.0,96,0.00,,---,0.00,16.00,VWS V14.01,2013-06-22 13:38:00,
2013-06-22 06:43:00,49.7,48.6,30.02,WNW,288,0.0,0.0,96,0.00,,---,0.00,23.00,VWS V14.01,2013-06-22 13:43:00,
2013-06-22 06:48:00,49.7,48.6,30.02,WNW,288,0.0,0.0,96,0.00,,---,0.00,26.00,VWS V14.01,2013-06-22 13:48:00,
2013-06-22 06:53:00,49.9,48.8,30.02,WNW,288,0.0,0.0,96,0.00,,---,0.00,28.00,VWS V14.01,2013-06-22 13:53:00,
2013-06-22 06:58:00,50.2,49.4,30.02,WNW,288,0.0,0.0,97,0.00,,---,0.00,28.00,VWS V14.01,2013-06-22 13:58:00,
2013-06-22 07:03:00,50.5,49.7,30.02,WNW,288,0.0,0.0,97,0.00,,---,0.00,30.00,VWS V14.01,2013-06-22 14:03:00,
2013-06-22 07:08:00,50.9,50.1,30.02,WNW,288,0.0,0.0,97,0.00,,---,0.00,33.00,VWS V14.01,2013-06-22 14:08:00,
2013-06-22 07:13:00,51.1,50.3,30.02,WNW,288,0.0,0.0,97,0.00,,---,0.00,35.00,VWS V14.01,2013-06-22 14:13:00,
2013-06-22 07:18:00,51.3,50.5,30.01,WNW,288,0.0,0.0,97,0.00,,---,0.00,40.00,VWS V14.01,2013-06-22 14:18:00,
2013-06-22 07:23:00,51.5,50.7,30.01,WNW,288,0.0,0.0,97,0.00,,---,0.00,44.00,VWS V14.01,2013-06-22 14:23:00,
2013-06-22 07:28:00,51.7,50.9,30.01,WNW,288,0.0,1.0,97,0.00,,---,0.00,49.00,VWS V14.01,2013-06-22 14:28:00,
2013-06-22 07:33:00,52.0,51.2,30.01,WNW,288,0.0,1.0,97,0.00,,---,0.00,53.00,VWS V14.01,2013-06-22 14:33:00,
2013-06-22 07:38:00,52.3,51.5,30.01,WNW,288,0.0,2.0,97,0.00,,---,0.00,58.00,VWS V14.01,2013-06-22 14:38:00,
2013-06-22 07:43:00,52.6,51.8,30.01,WNW,288,0.0,2.0,97,0.00,,---,0.00,62.00,VWS V14.01,2013-06-22 14:43:00,
2013-06-22 07:48:00,53.0,51.9,30.00,West,265,1.0,2.0,96,0.00,,---,0.00,63.00,VWS V14.01,2013-06-22 14:48:00,
2013-06-22 07:53:00,53.5,52.4,30.00,SSW,211,0.0,2.0,96,0.00,,---,0.00,295.00,VWS V14.01,2013-06-22 14:53:00,
2013-06-22 07:58:00,53.9,52.8,30.00,West,275,2.0,4.0,96,0.00,,---,0.00,360.00,VWS V14.01,2013-06-22 14:58:00,
2013-06-22 08:03:00,54.5,53.4,30.00,WNW,287,3.0,4.0,96,0.00,,---,0.00,388.00,VWS V14.01,2013-06-22 15:03:00,
2013-06-22 08:08:00,55.4,54.3,30.00,WNW,289,0.0,4.0,96,0.00,,---,0.00,406.00,VWS V14.01,2013-06-22 15:08:00,
2013-06-22 08:13:00,56.6,54.9,30.00,West,275,0.0,4.0,94,0.00,,---,0.00,438.00,VWS V14.01,2013-06-22 15:13:00,
2013-06-22 08:18:00,58.0,55.4,30.00,West,275,1.0,6.0,91,0.00,,---,0.00,446.00,VWS V14.01,2013-06-22 15:18:00,
2013-06-22 08:23:00,59.4,55.8,30.00,SW,215,0.0,6.0,88,0.00,,---,0.00,480.00,VWS V14.01,2013-06-22 15:23:00,
2013-06-22 08:28:00,61.0,56.5,30.00,West,273,1.0,3.0,85,0.00,,---,0.00,478.00,VWS V14.01,2013-06-22 15:28:00,
2013-06-22 08:33:00,62.3,57.1,30.00,WNW,292,3.0,4.0,83,0.00,,---,0.00,513.00,VWS V14.01,2013-06-22 15:33:00,
2013-06-22 08:38:00,63.6,57.3,30.00,WSW,257,2.0,5.0,80,0.00,,---,0.00,529.00,VWS V14.01,2013-06-22 15:38:00,
2013-06-22 08:43:00,64.7,57.7,30.00,WSW,247,0.0,5.0,78,0.00,,---,0.00,547.00,VWS V14.01,2013-06-22 15:43:00,
2013-06-22 08:48:00,65.7,57.9,29.99,WNW,291,0.0,4.0,76,0.00,,---,0.00,563.00,VWS V14.01,2013-06-22 15:48:00,
2013-06-22 08:53:00,66.8,58.3,29.99,WSW,251,3.0,4.0,74,0.00,,---,0.00,578.00,VWS V14.01,2013-06-22 15:53:00,
2013-06-22 08:58:00,67.5,57.4,29.99,SW,225,0.0,4.0,70,0.00,,---,0.00,596.00,VWS V14.01,2013-06-22 15:58:00,
2013-06-22 09:03:00,67.5,57.4,29.99,West,267,3.0,4.0,70,0.00,,---,0.00,612.00,VWS V14.01,2013-06-22 16:03:00,
2013-06-22 09:08:00,67.8,57.3,29.99,West,261,0.0,3.0,69,0.00,,---,0.00,626.00,VWS V14.01,2013-06-22 16:08:00,
2013-06-22 09:13:00,67.7,56.8,29.99,WSW,244,2.0,3.0,68,0.00,,---,0.00,638.00,VWS V14.01,2013-06-22 16:13:00,
2013-06-22 09:18:00,67.7,58.0,29.99,WSW,255,0.0,5.0,71,0.00,,---,0.00,652.00,VWS V14.01,2013-06-22 16:18:00,
2013-06-22 09:23:00,68.0,57.5,29.98,SW,227,0.0,5.0,69,0.00,,---,0.00,659.00,VWS V14.01,2013-06-22 16:23:00,
2013-06-22 09:28:00,68.7,56.9,29.98,WSW,248,1.0,3.0,66,0.00,,---,0.00,684.00,VWS V14.01,2013-06-22 16:28:00,
2013-06-22 09:33:00,69.2,57.4,29.98,WSW,246,2.0,3.0,66,0.00,,---,0.00,698.00,VWS V14.01,2013-06-22 16:33:00,
2013-06-22 09:38:00,70.0,58.1,29.98,West,269,0.0,5.0,66,0.00,,---,0.00,712.00,VWS V14.01,2013-06-22 16:38:00,
2013-06-22 09:44:00,70.4,57.2,29.98,West,275,2.0,5.0,63,0.00,,---,0.00,728.00,VWS V14.01,2013-06-22 16:44:00,
2013-06-22 09:48:00,71.2,57.1,29.98,West,274,1.0,5.0,61,0.00,,---,0.00,742.00,VWS V14.01,2013-06-22 16:48:00,
2013-06-22 09:54:00,71.2,55.7,29.98,SW,220,0.0,4.0,58,0.00,,---,0.00,752.00,VWS V14.01,2013-06-22 16:54:00,
2013-06-22 09:59:00,70.3,56.2,29.97,West,268,5.0,5.0,61,0.00,,---,0.00,765.00,VWS V14.01,2013-06-22 16:59:00,
2013-06-22 10:04:00,70.2,56.6,29.98,West,261,2.0,6.0,62,0.00,,---,0.00,772.00,VWS V14.01,2013-06-22 17:04:00,
2013-06-22 10:09:00,70.7,56.2,29.98,West,276,1.0,6.0,60,0.00,,---,0.00,773.00,VWS V14.01,2013-06-22 17:09:00,
2013-06-22 10:14:00,71.3,57.2,29.97,West,262,2.0,6.0,61,0.00,,---,0.00,788.00,VWS V14.01,2013-06-22 17:14:00,
2013-06-22 10:19:00,72.2,57.1,29.97,West,271,0.0,4.0,59,0.00,,---,0.00,791.00,VWS V14.01,2013-06-22 17:19:00,
2013-06-22 10:24:00,72.7,56.6,29.97,West,271,4.0,4.0,57,0.00,,---,0.00,816.00,VWS V14.01,2013-06-22 17:24:00,
2013-06-22 10:29:00,72.8,55.7,29.97,SW,228,0.0,6.0,55,0.00,,---,0.00,821.00,VWS V14.01,2013-06-22 17:29:00,
2013-06-22 10:34:00,72.4,55.8,29.97,WSW,248,3.0,6.0,56,0.00,,---,0.00,814.00,VWS V14.01,2013-06-22 17:34:00,
2013-06-22 10:39:00,72.4,54.3,29.97,SSE,160,0.0,5.0,53,0.00,,---,0.00,838.00,VWS V14.01,2013-06-22 17:39:00,
2013-06-22 10:44:00,71.7,56.2,29.97,SW,225,1.0,5.0,58,0.00,,---,0.00,842.00,VWS V14.01,2013-06-22 17:44:00,
2013-06-22 10:49:00,72.3,56.2,29.97,West,263,0.0,6.0,57,0.00,,---,0.00,851.00,VWS V14.01,2013-06-22 17:49:00,
2013-06-22 10:54:00,72.9,54.3,29.96,NNE,25,0.0,6.0,52,0.00,,---,0.00,867.00,VWS V14.01,2013-06-22 17:54:00,
2013-06-22 10:59:00,72.8,56.7,29.96,SW,223,1.0,5.0,57,0.00,,---,0.00,882.00,VWS V14.01,2013-06-22 17:59:00,
2013-06-22 11:04:00,73.1,55.0,29.96,West,267,3.0,5.0,53,0.00,,---,0.00,874.00,VWS V14.01,2013-06-22 18:04:00,
2013-06-22 11:09:00,73.6,54.4,29.96,WNW,288,2.0,5.0,51,0.00,,---,0.00,904.00,VWS V14.01,2013-06-22 18:09:00,
2013-06-22 11:14:00,74.2,54.9,29.96,West,278,3.0,6.0,51,0.00,,---,0.00,921.00,VWS V14.01,2013-06-22 18:14:00,
2013-06-22 11:19:00,74.9,55.6,29.96,West,260,0.0,6.0,51,0.00,,---,0.00,919.00,VWS V14.01,2013-06-22 18:19:00,
2013-06-22 11:24:00,76.1,55.6,29.95,WNW,282,1.0,6.0,49,0.00,,---,0.00,935.00,VWS V14.01,2013-06-22 18:24:00,
2013-06-22 11:29:00,77.2,57.7,29.95,West,263,2.0,6.0,51,0.00,,---,0.00,939.00,VWS V14.01,2013-06-22 18:29:00,
2013-06-22 11:34:00,78.3,57.6,29.95,WSW,248,1.0,4.0,49,0.00,,---,0.00,949.00,VWS V14.01,2013-06-22 18:34:00,
2013-06-22 11:39:00,78.2,56.3,29.95,NE,45,2.0,4.0,47,0.00,,---,0.00,953.00,VWS V14.01,2013-06-22 18:39:00,
2013-06-22 11:44:00,78.0,56.7,29.95,WNW,297,0.0,3.0,48,0.00,,---,0.00,962.00,VWS V14.01,2013-06-22 18:44:00,
2013-06-22 11:49:00,78.2,55.1,29.95,WSW,254,1.0,5.0,45,0.00,,---,0.00,965.00,VWS V14.01,2013-06-22 18:49:00,
2013-06-22 11:54:00,76.6,53.7,29.95,South,172,1.0,5.0,45,0.00,,---,0.00,970.00,VWS V14.01,2013-06-22 18:54:00,
2013-06-22 11:59:00,75.4,56.0,29.94,SSW,195,0.0,5.0,51,0.00,,---,0.00,974.00,VWS V14.01,2013-06-22 18:59:00,
2013-06-22 12:04:00,75.9,56.5,29.94,WNW,291,0.0,5.0,51,0.00,,---,0.00,977.00,VWS V14.01,2013-06-22 19:04:00,
2013-06-22 12:09:00,76.9,55.2,29.94,NW,312,1.0,7.0,47,0.00,,---,0.00,984.00,VWS V14.01,2013-06-22 19:09:00,
2013-06-22 12:14:00,77.3,55.5,29.94,SW,228,4.0,7.0,47,0.00,,---,0.00,988.00,VWS V14.01,2013-06-22 19:14:00,
2013-06-22 12:19:00,77.6,55.8,29.94,NW,304,2.0,6.0,47,0.00,,---,0.00,993.00,VWS V14.01,2013-06-22 19:19:00,
2013-06-22 12:24:00,78.3,55.8,29.93,WSW,242,2.0,7.0,46,0.00,,---,0.00,997.00,VWS V14.01,2013-06-22 19:24:00,
2013-06-22 12:29:00,78.6,56.1,29.93,West,265,4.0,4.0,46,0.00,,---,0.00,997.00,VWS V14.01,2013-06-22 19:29:00,
2013-06-22 12:34:00,78.5,56.6,29.93,WNW,283,5.0,6.0,47,0.00,,---,0.00,1000.00,VWS V14.01,2013-06-22 19:34:00,
2013-06-22 12:39:00,79.0,57.7,29.93,SW,234,4.0,6.0,48,0.00,,---,0.00,1000.00,VWS V14.01,2013-06-22 19:39:00,
2013-06-22 12:44:00,80.0,59.7,29.93,WSW,238,1.0,6.0,50,0.00,,---,0.00,1002.00,VWS V14.01,2013-06-22 19:44:00,
2013-06-22 12:49:00,79.4,56.8,29.93,West,261,3.0,6.0,46,0.00,,---,0.00,1002.00,VWS V14.01,2013-06-22 19:49:00,
2013-06-22 12:54:00,79.3,57.9,29.92,West,272,3.0,6.0,48,0.00,,---,0.00,1002.00,VWS V14.01,2013-06-22 19:54:00,
2013-06-22 12:59:00,79.1,54.7,29.92,SE,135,0.0,5.0,43,0.00,,---,0.00,1004.00,VWS V14.01,2013-06-22 19:59:00,
2013-06-22 13:04:00,78.9,57.0,29.92,WSW,253,4.0,5.0,47,0.00,,---,0.00,1005.00,VWS V14.01,2013-06-22 20:04:00,
2013-06-22 13:09:00,78.2,55.8,29.92,WSW,257,0.0,5.0,46,0.00,,---,0.00,1002.00,VWS V14.01,2013-06-22 20:09:00,
2013-06-22 13:14:00,78.7,58.0,29.92,WNW,295,1.0,6.0,49,0.00,,---,0.00,1000.00,VWS V14.01,2013-06-22 20:14:00,
2013-06-22 13:19:00,79.9,56.1,29.92,SSE,159,2.0,6.0,44,0.00,,---,0.00,1002.00,VWS V14.01,2013-06-22 20:19:00,
2013-06-22 13:24:00,79.5,54.4,29.92,WSW,242,3.0,6.0,42,0.00,,---,0.00,1000.00,VWS V14.01,2013-06-22 20:24:00,
2013-06-22 13:29:00,79.0,54.6,29.91,SW,229,1.0,4.0,43,0.00,,---,0.00,997.00,VWS V14.01,2013-06-22 20:29:00,
2013-06-22 13:34:00,79.6,55.8,29.91,West,271,3.0,6.0,44,0.00,,---,0.00,993.00,VWS V14.01,2013-06-22 20:34:00,
2013-06-22 13:39:00,80.1,56.2,29.91,WSW,237,2.0,8.0,44,0.00,,---,0.00,995.00,VWS V14.01,2013-06-22 20:39:00,
2013-06-22 13:44:00,80.3,56.4,29.91,West,275,4.0,9.0,44,0.00,,---,0.00,990.00,VWS V14.01,2013-06-22 20:44:00,
2013-06-22 13:49:00,81.1,58.4,29.91,South,175,0.0,4.0,46,0.00,,---,0.00,979.00,VWS V14.01,2013-06-22 20:49:00,
2013-06-22 13:54:00,80.6,57.9,29.91,SW,234,0.0,6.0,46,0.00,,---,0.00,977.00,VWS V14.01,2013-06-22 20:54:00,
2013-06-22 13:59:00,79.9,54.8,29.91,South,186,1.0,5.0,42,0.00,,---,0.00,974.00,VWS V14.01,2013-06-22 20:59:00,
2013-06-22 14:04:00,79.1,57.2,29.91,WSW,252,3.0,7.0,47,0.00,,---,0.00,963.00,VWS V14.01,2013-06-22 21:04:00,
2013-06-22 14:09:00,80.0,58.6,29.90,WSW,255,0.0,7.0,48,0.00,,---,0.00,970.00,VWS V14.01,2013-06-22 21:09:00,
2013-06-22 14:14:00,80.1,55.0,29.90,SW,223,1.0,8.0,42,0.00,,---,0.00,970.00,VWS V14.01,2013-06-22 21:14:00,
2013-06-22 14:19:00,80.0,56.2,29.90,WSW,238,0.0,8.0,44,0.00,,---,0.00,962.00,VWS V14.01,2013-06-22 21:19:00,
2013-06-22 14:24:00,80.5,57.2,29.90,NW,304,7.0,8.0,45,0.00,,---,0.00,962.00,VWS V14.01,2013-06-22 21:24:00,
2013-06-22 14:29:00,80.7,55.5,29.90,WSW,247,4.0,9.0,42,0.00,,---,0.00,947.00,VWS V14.01,2013-06-22 21:29:00,
2013-06-22 14:34:00,81.5,56.2,29.90,SSW,200,0.0,4.0,42,0.00,,---,0.00,940.00,VWS V14.01,2013-06-22 21:34:00,
2013-06-22 14:39:00,82.5,55.8,29.89,South,169,2.0,5.0,40,0.00,,---,0.00,960.00,VWS V14.01,2013-06-22 21:39:00,
2013-06-22 14:44:00,82.1,56.8,29.89,WSW,244,2.0,7.0,42,0.00,,---,0.00,902.00,VWS V14.01,2013-06-22 21:44:00,
2013-06-22 14:49:00,81.5,54.9,29.89,SSW,197,1.0,7.0,40,0.00,,---,0.00,884.00,VWS V14.01,2013-06-22 21:49:00,
2013-06-22 14:54:00,81.4,56.1,29.89,South,186,4.0,6.0,42,0.00,,---,0.00,830.00,VWS V14.01,2013-06-22 21:54:00,
2013-06-22 14:59:00,80.8,56.9,29.89,SSE,162,1.0,7.0,44,0.00,,---,0.00,847.00,VWS V14.01,2013-06-22 21:59:00,
2013-06-22 15:05:00,80.0,54.2,29.88,South,179,1.0,7.0,41,0.00,,---,0.00,846.00,VWS V14.01,2013-06-22 22:05:00,
2013-06-22 15:10:00,80.2,56.3,29.88,WSW,240,3.0,6.0,44,0.00,,---,0.00,877.00,VWS V14.01,2013-06-22 22:10:00,
2013-06-22 15:15:00,81.1,57.2,29.88,WSW,255,3.0,6.0,44,0.00,,---,0.00,802.00,VWS V14.01,2013-06-22 22:15:00,
2013-06-22 15:20:00,82.0,56.7,29.88,WNW,284,2.0,8.0,42,0.00,,---,0.00,679.00,VWS V14.01,2013-06-22 22:20:00,
2013-06-22 15:25:00,82.3,56.3,29.88,SSW,199,0.0,6.0,41,0.00,,---,0.00,599.00,VWS V14.01,2013-06-22 22:25:00,
2013-06-22 15:30:00,82.2,56.8,29.88,South,186,3.0,6.0,42,0.00,,---,0.00,677.00,VWS V14.01,2013-06-22 22:30:00,
2013-06-22 15:35:00,81.2,56.0,29.87,SSE,160,1.0,7.0,42,0.00,,---,0.00,849.00,VWS V14.01,2013-06-22 22:35:00,
2013-06-22 15:40:00,80.9,55.0,29.87,West,279,3.0,7.0,41,0.00,,---,0.00,791.00,VWS V14.01,2013-06-22 22:40:00,
2013-06-22 15:45:00,81.1,55.2,29.87,South,178,1.0,7.0,41,0.00,,---,0.00,719.00,VWS V14.01,2013-06-22 22:45:00,
2013-06-22 15:50:00,81.1,56.5,29.87,SW,233,2.0,5.0,43,0.00,,---,0.00,788.00,VWS V14.01,2013-06-22 22:50:00,
2013-06-22 15:55:00,80.4,55.2,29.87,West,280,0.0,8.0,42,0.00,,---,0.00,717.00,VWS V14.01,2013-06-22 22:55:00,
2013-06-22 16:00:00,80.2,55.0,29.87,WSW,241,0.0,5.0,42,0.00,,---,0.00,633.00,VWS V14.01,2013-06-22 23:00:00,
2013-06-22 16:05:00,79.9,56.1,29.87,WSW,251,1.0,6.0,44,0.00,,---,0.00,603.00,VWS V14.01,2013-06-22 23:05:00,
2013-06-22 16:10:00,79.5,55.1,29.86,WSW,246,1.0,7.0,43,0.00,,---,0.00,438.00,VWS V14.01,2013-06-22 23:10:00,
2013-06-22 16:15:00,79.6,55.8,29.86,NW,311,5.0,7.0,44,0.00,,---,0.00,729.00,VWS V14.01,2013-06-22 23:15:00,
2013-06-22 16:20:00,80.2,55.0,29.86,WSW,257,1.0,9.0,42,0.00,,---,0.00,759.00,VWS V14.01,2013-06-22 23:20:00,
2013-06-22 16:25:00,80.4,55.2,29.86,WNW,283,3.0,9.0,42,0.00,,---,0.00,696.00,VWS V14.01,2013-06-22 23:25:00,
2013-06-22 16:30:00,80.4,55.9,29.86,West,261,2.0,7.0,43,0.00,,---,0.00,552.00,VWS V14.01,2013-06-22 23:30:00,
2013-06-22 16:35:00,80.0,53.5,29.86,SSW,198,0.0,6.0,40,0.00,,---,0.00,677.00,VWS V14.01,2013-06-22 23:35:00,
2013-06-22 16:40:00,79.7,54.6,29.85,SSW,202,2.0,6.0,42,0.00,,---,0.00,568.00,VWS V14.01,2013-06-22 23:40:00,
2013-06-22 16:45:00,79.2,52.8,29.85,South,183,2.0,6.0,40,0.00,,---,0.00,547.00,VWS V14.01,2013-06-22 23:45:00,
2013-06-22 16:50:00,78.6,53.0,29.85,South,175,2.0,6.0,41,0.00,,---,0.00,487.00,VWS V14.01,2013-06-22 23:50:00,
2013-06-22 16:55:00,77.9,53.0,29.85,SSE,165,0.0,5.0,42,0.00,,---,0.00,315.00,VWS V14.01,2013-06-22 23:55:00,
2013-06-22 17:00:00,77.4,55.0,29.84,WNW,284,0.0,5.0,46,0.00,,---,0.00,536.00,VWS V14.01,2013-06-23 00:00:00,
2013-06-22 17:05:00,77.6,55.8,29.84,SSW,208,0.0,6.0,47,0.00,,---,0.00,642.00,VWS V14.01,2013-06-23 00:05:00,
2013-06-22 17:10:00,77.7,52.8,29.84,South,180,3.0,6.0,42,0.00,,---,0.00,621.00,VWS V14.01,2013-06-23 00:10:00,
2013-06-22 17:15:00,77.9,53.6,29.84,WSW,254,4.0,6.0,43,0.00,,---,0.00,591.00,VWS V14.01,2013-06-23 00:15:00,
2013-06-22 17:20:00,77.9,54.3,29.84,WSW,253,2.0,6.0,44,0.00,,---,0.00,573.00,VWS V14.01,2013-06-23 00:20:00,
2013-06-22 17:25:00,77.3,53.1,29.84,South,186,0.0,6.0,43,0.00,,---,0.00,554.00,VWS V14.01,2013-06-23 00:25:00,
2013-06-22 17:30:00,76.6,53.1,29.84,WNW,296,3.0,7.0,44,0.00,,---,0.00,54.00,VWS V14.01,2013-06-23 00:30:00,
2013-06-22 17:35:00,75.9,53.1,29.83,SSW,202,0.0,7.0,45,0.00,,---,0.00,49.00,VWS V14.01,2013-06-23 00:35:00,
2013-06-22 17:40:00,75.5,53.3,29.83,SE,134,1.0,7.0,46,0.00,,---,0.00,47.00,VWS V14.01,2013-06-23 00:40:00,
2013-06-22 17:45:00,75.3,53.1,29.83,SE,131,1.0,7.0,46,0.00,,---,0.00,44.00,VWS V14.01,2013-06-23 00:45:00,
2013-06-22 17:50:00,74.9,52.8,29.83,SSW,205,0.0,5.0,46,0.00,,---,0.00,49.00,VWS V14.01,2013-06-23 00:50:00,
2013-06-22 17:55:00,74.5,52.4,29.83,SSW,205,1.0,4.0,46,0.00,,---,0.00,44.00,VWS V14.01,2013-06-23 00:55:00,
2013-06-22 18:00:00,74.2,52.7,29.82,SSE,156,2.0,4.0,47,0.00,,---,0.00,42.00,VWS V14.01,2013-06-23 01:00:00,
2013-06-22 18:05:00,74.1,53.7,29.82,WSW,253,0.0,4.0,49,0.00,,---,0.00,46.00,VWS V14.01,2013-06-23 01:05:00,
2013-06-22 18:10:00,74.1,54.3,29.82,North,5,0.0,5.0,50,0.00,,---,0.00,44.00,VWS V14.01,2013-06-23 01:10:00,
2013-06-22 18:15:00,74.2,54.4,29.82,West,259,3.0,3.0,50,0.00,,---,0.00,30.00,VWS V14.01,2013-06-23 01:15:00,
2013-06-22 18:20:00,74.2,54.4,29.82,WNW,297,2.0,5.0,50,0.00,,---,0.00,32.00,VWS V14.01,2013-06-23 01:20:00,
2013-06-22 18:25:00,74.1,53.7,29.82,WNW,296,0.0,5.0,49,0.00,,---,0.00,28.00,VWS V14.01,2013-06-23 01:25:00,
2013-06-22 18:30:00,74.0,53.1,29.82,SSW,198,0.0,2.0,48,0.00,,---,0.00,46.00,VWS V14.01,2013-06-23 01:30:00,
2013-06-22 18:35:00,73.9,54.1,29.82,SSW,198,0.0,1.0,50,0.00,,---,0.00,51.00,VWS V14.01,2013-06-23 01:35:00,
2013-06-22 18:40:00,73.9,53.6,29.81,SW,215,0.0,3.0,49,0.00,,---,0.00,47.00,VWS V14.01,2013-06-23 01:40:00,
2013-06-22 18:45:00,73.9,53.6,29.81,SW,215,0.0,3.0,49,0.00,,---,0.00,70.00,VWS V14.01,2013-06-23 01:45:00,
2013-06-22 18:50:00,74.0,54.2,29.81,WNW,298,0.0,3.0,50,0.00,,---,0.00,88.00,VWS V14.01,2013-06-23 01:50:00,
2013-06-22 18:55:00,74.2,53.8,29.81,WNW,303,0.0,2.0,49,0.00,,---,0.00,95.00,VWS V14.01,2013-06-23 01:55:00,
2013-06-22 19:00:00,74.4,54.6,29.81,WNW,303,0.0,2.0,50,0.00,,---,0.00,88.00,VWS V14.01,2013-06-23 02:00:00,
2013-06-22 19:06:00,74.6,55.3,29.81,WNW,300,2.0,4.0,51,0.00,,---,0.00,83.00,VWS V14.01,2013-06-23 02:06:00,
2013-06-22 19:11:00,74.7,54.3,29.81,WSW,239,1.0,4.0,49,0.00,,---,0.00,67.00,VWS V14.01,2013-06-23 02:11:00,
2013-06-22 19:16:00,74.6,53.6,29.81,WSW,242,0.0,4.0,48,0.00,,---,0.00,49.00,VWS V14.01,2013-06-23 02:16:00,
2013-06-22 19:21:00,74.6,54.2,29.81,SW,234,0.0,1.0,49,0.00,,---,0.00,42.00,VWS V14.01,2013-06-23 02:21:00,
2013-06-22 19:26:00,74.4,54.6,29.81,SW,233,0.0,2.0,50,0.00,,---,0.00,39.00,VWS V14.01,2013-06-23 02:26:00,
2013-06-22 19:31:00,74.2,53.8,29.81,SW,233,0.0,1.0,49,0.00,,---,0.00,35.00,VWS V14.01,2013-06-23 02:31:00,
2013-06-22 19:36:00,73.9,53.6,29.81,SW,233,0.0,1.0,49,0.00,,---,0.00,39.00,VWS V14.01,2013-06-23 02:36:00,
2013-06-22 19:41:00,73.7,53.9,29.81,WNW,297,2.0,4.0,50,0.00,,---,0.00,49.00,VWS V14.01,2013-06-23 02:41:00,
2013-06-22 19:46:00,73.6,55.4,29.81,WNW,297,0.0,4.0,53,0.00,,---,0.00,56.00,VWS V14.01,2013-06-23 02:46:00,
2013-06-22 19:51:00,73.5,54.8,29.80,SW,227,0.0,3.0,52,0.00,,---,0.00,51.00,VWS V14.01,2013-06-23 02:51:00,
2013-06-22 19:56:00,73.4,54.2,29.80,SW,226,0.0,2.0,51,0.00,,---,0.00,46.00,VWS V14.01,2013-06-23 02:56:00,
2013-06-22 20:01:00,73.4,53.7,29.80,SW,226,0.0,0.0,50,0.00,,---,0.00,51.00,VWS V14.01,2013-06-23 03:01:00,
2013-06-22 20:06:00,73.4,55.8,29.80,SW,227,0.0,0.0,54,0.00,,---,0.00,49.00,VWS V14.01,2013-06-23 03:06:00,
2013-06-22 20:11:00,73.3,54.1,29.80,SW,227,0.0,1.0,51,0.00,,---,0.00,40.00,VWS V14.01,2013-06-23 03:11:00,
2013-06-22 20:16:00,73.2,55.1,29.80,SW,233,0.0,2.0,53,0.00,,---,0.00,30.00,VWS V14.01,2013-06-23 03:16:00,
2013-06-22 20:21:00,73.1,55.0,29.80,West,263,0.0,3.0,53,0.00,,---,0.00,23.00,VWS V14.01,2013-06-23 03:21:00,
2013-06-22 20:26:00,72.9,55.8,29.80,West,263,0.0,3.0,55,0.00,,---,0.00,18.00,VWS V14.01,2013-06-23 03:26:00,
2013-06-22 20:31:00,72.7,56.1,29.80,West,263,0.0,1.0,56,0.00,,---,0.00,14.00,VWS V14.01,2013-06-23 03:31:00,
2013-06-22 20:36:00,72.3,55.2,29.80,West,263,0.0,1.0,55,0.00,,---,0.00,12.00,VWS V14.01,2013-06-23 03:36:00,
2013-06-22 20:41:00,72.0,55.5,29.81,West,263,0.0,0.0,56,0.00,,---,0.00,12.00,VWS V14.01,2013-06-23 03:41:00,
2013-06-22 20:46:00,71.6,55.6,29.80,West,263,0.0,0.0,57,0.00,,---,0.00,11.00,VWS V14.01,2013-06-23 03:46:00,
2013-06-22 20:51:00,71.3,54.3,29.80,West,263,0.0,0.0,55,0.00,,---,0.00,11.00,VWS V14.01,2013-06-23 03:51:00,
2013-06-22 20:56:00,70.9,55.4,29.80,West,263,0.0,0.0,58,0.00,,---,0.00,7.00,VWS V14.01,2013-06-23 03:56:00,
2013-06-22 21:01:00,70.5,54.5,29.80,West,263,0.0,0.0,57,0.00,,---,0.00,5.00,VWS V14.01,2013-06-23 04:01:00,
2013-06-22 21:02:00,70.4,54.9,29.80,West,263,0.0,0.0,58,0.00,,---,0.00,5.00,VWS V14.01,2013-06-23 04:02:00,
2013-06-22 21:07:00,70.1,54.7,29.80,West,263,0.0,0.0,58,0.00,,---,0.00,0.00,VWS V14.01,2013-06-23 04:07:00,
2013-06-22 21:12:00,69.7,54.3,29.80,West,263,0.0,0.0,58,0.00,,---,0.00,0.00,VWS V14.01,2013-06-23 04:12:00,
2013-06-22 21:17:00,69.4,54.5,29.80,West,263,0.0,0.0,59,0.00,,---,0.00,0.00,VWS V14.01,2013-06-23 04:17:00,
2013-06-22 21:22:00,69.0,54.5,29.80,West,263,0.0,0.0,60,0.00,,---,0.00,0.00,VWS V14.01,2013-06-23 04:22:00,
2013-06-22 21:27:00,68.6,53.7,29.80,West,263,0.0,0.0,59,0.00,,---,0.00,0.00,VWS V14.01,2013-06-23 04:27:00,
2013-06-22 21:32:00,68.3,54.8,29.80,West,263,0.0,0.0,62,0.00,,---,0.00,0.00,VWS V14.01,2013-06-23 04:32:00,
2013-06-22 21:37:00,68.0,54.5,29.80,West,263,0.0,0.0,62,0.00,,---,0.00,0.00,VWS V14.01,2013-06-23 04:37:00,
2013-06-22 21:42:00,67.9,54.8,29.80,West,263,0.0,0.0,63,0.00,,---,0.00,0.00,VWS V14.01,2013-06-23 04:42:00,
2013-06-22 21:47:00,67.6,54.6,29.80,West,263,0.0,0.0,63,0.00,,---,0.00,0.00,VWS V14.01,2013-06-23 04:47:00,
2013-06-22 21:52:00,67.4,54.4,29.80,West,263,0.0,0.0,63,0.00,,---,0.00,0.00,VWS V14.01,2013-06-23 04:52:00,
2013-06-22 21:57:00,67.2,54.2,29.80,West,263,0.0,0.0,63,0.00,,---,0.00,0.00,VWS V14.01,2013-06-23 04:57:00,
2013-06-22 22:02:00,67.0,54.0,29.80,West,263,0.0,0.0,63,0.00,,---,0.00,0.00,VWS V14.01,2013-06-23 05:02:00,
2013-06-22 22:07:00,66.9,54.3,29.80,West,263,0.0,0.0,64,0.00,,---,0.00,0.00,VWS V14.01,2013-06-23 05:07:00,
2013-06-22 22:12:00,66.7,54.6,29.80,West,263,0.0,0.0,65,0.00,,---,0.00,0.00,VWS V14.01,2013-06-23 05:12:00,
2013-06-22 22:17:00,66.6,54.5,29.80,West,263,0.0,0.0,65,0.00,,---,0.00,0.00,VWS V14.01,2013-06-23 05:17:00,
2013-06-22 22:22:00,66.4,54.7,29.80,West,263,0.0,0.0,66,0.00,,---,0.00,0.00,VWS V14.01,2013-06-23 05:22:00,
2013-06-22 22:27:00,66.1,54.4,29.79,West,263,0.0,0.0,66,0.00,,---,0.00,0.00,VWS V14.01,2013-06-23 05:27:00,
2013-06-22 22:32:00,65.9,54.2,29.79,West,263,0.0,0.0,66,0.00,,---,0.00,0.00,VWS V14.01,2013-06-23 05:32:00,
2013-06-22 22:37:00,65.6,54.0,29.79,West,263,0.0,0.0,66,0.00,,---,0.00,0.00,VWS V14.01,2013-06-23 05:37:00,
2013-06-22 22:42:00,65.4,53.8,29.79,West,263,0.0,0.0,66,0.00,,---,0.00,0.00,VWS V14.01,2013-06-23 05:42:00,
2013-06-22 22:47:00,65.2,53.6,29.79,West,263,0.0,0.0,66,0.00,,---,0.00,0.00,VWS V14.01,2013-06-23 05:47:00,
2013-06-22 22:52:00,65.1,53.1,29.79,West,263,0.0,0.0,65,0.00,,---,0.00,0.00,VWS V14.01,2013-06-23 05:52:00,
2013-06-22 22:57:00,65.0,53.4,29.79,West,263,0.0,0.0,66,0.00,,---,0.00,0.00,VWS V14.01,2013-06-23 05:57:00,
2013-06-22 23:01:00,64.9,53.3,29.79,West,263,0.0,0.0,66,0.00,,---,0.00,0.00,VWS V14.01,2013-06-23 06:01:00,
2013-06-22 23:06:00,64.8,53.2,29.79,West,263,0.0,0.0,66,0.00,,---,0.00,0.00,VWS V14.01,2013-06-23 06:06:00,
2013-06-22 23:11:00,64.6,53.0,29.79,West,263,0.0,0.0,66,0.00,,---,0.00,0.00,VWS V14.01,2013-06-23 06:11:00,
2013-06-22 23:16:00,64.5,53.7,29.79,West,263,0.0,0.0,68,0.00,,---,0.00,0.00,VWS V14.01,2013-06-23 06:16:00,
2013-06-22 23:21:00,64.3,53.9,29.79,West,263,0.0,0.0,69,0.00,,---,0.00,0.00,VWS V14.01,2013-06-23 06:21:00,
2013-06-22 23:26:00,64.1,53.7,29.79,West,263,0.0,0.0,69,0.00,,---,0.00,0.00,VWS V14.01,2013-06-23 06:26:00,
2013-06-22 23:31:00,63.9,53.9,29.78,West,263,0.0,0.0,70,0.00,,---,0.00,0.00,VWS V14.01,2013-06-23 06:31:00,
2013-06-22 23:36:00,63.6,54.0,29.78,West,263,0.0,0.0,71,0.00,,---,0.00,0.00,VWS V14.01,2013-06-23 06:36:00,
2013-06-22 23:41:00,63.4,53.5,29.78,West,263,0.0,0.0,70,0.00,,---,0.00,0.00,VWS V14.01,2013-06-23 06:41:00,
2013-06-22 23:46:00,63.2,54.0,29.78,West,263,0.0,0.0,72,0.00,,---,0.00,0.00,VWS V14.01,2013-06-23 06:46:00,
2013-06-22 23:51:00,63.0,53.8,29.78,West,263,0.0,0.0,72,0.00,,---,0.00,0.00,VWS V14.01,2013-06-23 06:51:00,
2013-06-22 23:56:00,62.9,53.8,29.78,West,263,0.0,0.0,72,0.00,,---,0.00,0.00,VWS V14.01,2013-06-23 06:56:00,